createdAt,value
2023-02-18T00:09:59.708Z,2.70
2023-02-18T00:12:26.787Z,3.00
2023-02-18T00:14:53.835Z,3.30
2023-02-18T00:27:04.157Z,2.60
2023-02-18T00:29:31.281Z,2.13
2023-02-18T00:31:58.253Z,2.08
2023-02-18T00:34:25.312Z,2.03
2023-02-18T00:36:52.175Z,2.60
2023-02-18T00:41:44.627Z,2.08
2023-02-18T00:44:12.373Z,2.03
2023-02-18T00:49:05.895Z,2.97
2023-02-18T00:51:33.370Z,1.88
2023-02-18T00:54:00.517Z,2.00
2023-02-18T00:56:27.749Z,1.90
2023-02-18T00:58:54.878Z,1.77
2023-02-18T01:03:47.458Z,1.73
2023-02-18T01:06:14.775Z,1.60
2023-02-18T01:08:42.311Z,1.73
2023-02-18T01:11:10.261Z,2.00
2023-02-18T01:13:37.762Z,1.52
2023-02-18T01:16:04.779Z,1.63
2023-02-18T01:18:56.611Z,1.60
2023-02-18T01:21:23.484Z,1.88
2023-02-18T01:23:51.872Z,1.35
2023-02-18T01:26:18.789Z,1.35
2023-02-18T01:34:15.356Z,1.80
2023-02-18T01:36:42.550Z,1.80
2023-02-18T01:39:09.720Z,1.80
2023-02-18T01:44:11.288Z,1.95
2023-02-18T01:54:11.421Z,1.95
2023-02-18T01:56:41.267Z,2.13
2023-02-18T01:59:12.982Z,1.80
2023-02-18T02:01:42.681Z,1.98
2023-02-18T02:04:09.723Z,1.88
2023-02-18T02:09:04.729Z,1.65
2023-02-18T02:14:29.543Z,2.20
2023-02-18T02:17:02.570Z,1.88
2023-02-18T02:19:41.556Z,1.80
2023-02-18T02:30:38.247Z,1.95
2023-02-18T02:36:14.388Z,1.90
2023-02-18T02:41:23.289Z,1.98
2023-02-18T02:49:06.614Z,2.00
2023-02-18T02:51:40.057Z,1.90
2023-02-18T02:54:12.362Z,1.73
2023-02-18T02:56:39.638Z,2.05
2023-02-18T02:59:10.552Z,2.22
2023-02-18T03:01:59.660Z,1.67
2023-02-18T03:04:32.315Z,1.73
2023-02-18T03:07:18.757Z,1.85
2023-02-18T03:09:46.022Z,1.80
2023-02-18T03:12:19.610Z,1.90
2023-02-18T03:14:56.813Z,1.45
2023-02-18T03:30:00.742Z,1.85
2023-02-18T03:32:29.580Z,1.63
2023-02-18T03:37:30.117Z,1.77
2023-02-18T03:40:00.250Z,2.00
2023-02-18T03:44:53.536Z,2.13
2023-02-18T03:47:22.771Z,1.80
2023-02-18T03:52:15.515Z,1.42
2023-02-18T03:54:42.515Z,1.83
2023-02-18T03:57:09.613Z,1.30
2023-02-18T03:59:36.829Z,1.98
2023-02-18T04:02:04.000Z,1.63
2023-02-18T04:04:31.150Z,1.60
2023-02-18T04:06:58.363Z,1.80
2023-02-18T04:09:25.206Z,1.60
2023-02-18T04:14:17.946Z,1.52
2023-02-18T04:16:45.078Z,1.65
2023-02-18T04:21:37.831Z,2.13
2023-02-18T04:24:04.834Z,2.28
2023-02-18T04:28:57.421Z,2.15
2023-02-18T04:31:24.562Z,1.80
2023-02-18T04:33:51.680Z,1.80
2023-02-18T04:36:18.541Z,1.90
2023-02-18T04:38:45.546Z,1.63
2023-02-18T04:46:04.571Z,1.92
2023-02-18T04:55:51.843Z,2.17
2023-02-18T04:58:19.086Z,1.45
2023-02-18T05:05:37.957Z,1.95
2023-02-18T05:10:32.571Z,1.63
2023-02-18T05:12:59.568Z,1.40
2023-02-18T05:15:27.186Z,1.77
2023-02-18T05:25:16.629Z,1.85
2023-02-18T05:27:43.765Z,1.63
2023-02-18T05:30:11.087Z,1.85
2023-02-18T05:44:46.676Z,1.50
2023-02-18T06:06:40.953Z,2.03
2023-02-18T06:09:08.246Z,1.42
2023-02-18T06:11:35.695Z,1.60
2023-02-18T06:14:02.936Z,1.65
2023-02-18T06:16:30.365Z,1.42
2023-02-18T06:18:57.386Z,2.58
2023-02-18T06:21:24.288Z,1.20
2023-02-18T06:23:51.315Z,1.60
2023-02-18T06:26:18.441Z,1.85
2023-02-18T06:28:45.458Z,1.63
2023-02-18T06:31:12.414Z,1.55
2023-02-18T06:33:39.468Z,1.60
2023-02-18T06:36:08.244Z,1.30
2023-02-18T06:38:35.866Z,1.52
2023-02-18T06:41:03.227Z,1.40
2023-02-18T06:43:30.210Z,1.80
2023-02-18T06:45:57.100Z,1.60
2023-02-18T06:48:24.364Z,1.42
2023-02-18T06:50:51.735Z,1.85
2023-02-18T06:58:11.179Z,1.50
2023-02-18T07:00:38.610Z,1.40
2023-02-18T07:05:31.587Z,1.60
2023-02-18T07:07:58.591Z,2.40
2023-02-18T07:10:25.920Z,1.80
2023-02-18T07:17:46.511Z,1.70
2023-02-18T07:22:39.313Z,1.40
2023-02-18T07:25:08.068Z,1.98
2023-02-18T07:27:35.247Z,2.08
2023-02-18T07:30:02.369Z,2.00
2023-02-18T07:32:29.319Z,1.52
2023-02-18T07:34:56.348Z,2.35
2023-02-18T07:37:26.446Z,1.98
2023-02-18T07:39:53.614Z,1.60
2023-02-18T07:42:20.741Z,2.17
2023-02-18T07:44:47.584Z,1.70
2023-02-18T07:47:15.949Z,2.00
2023-02-18T07:52:08.750Z,1.95
2023-02-18T07:54:38.505Z,1.70
2023-02-18T08:01:56.667Z,2.17
2023-02-18T08:06:49.951Z,2.03
2023-02-18T08:09:17.648Z,2.10
2023-02-18T08:11:45.358Z,2.03
2023-02-18T08:14:12.534Z,1.75
2023-02-18T08:16:40.647Z,1.73
2023-02-18T08:19:08.200Z,1.80
2023-02-18T08:21:35.342Z,1.83
2023-02-18T08:24:02.347Z,1.90
2023-02-18T08:33:47.836Z,2.40
2023-02-18T08:36:15.204Z,2.40
2023-02-18T08:38:42.201Z,1.98
2023-02-18T09:15:09.419Z,2.25
2023-02-18T09:17:36.550Z,3.17
2023-02-18T09:20:04.228Z,2.60
2023-02-18T09:24:58.522Z,2.55
2023-02-18T09:27:25.347Z,2.15
2023-02-18T09:34:44.706Z,2.13
2023-02-18T09:39:37.846Z,2.05
2023-02-18T09:42:05.947Z,1.80
2023-02-18T09:47:03.115Z,2.72
2023-02-18T09:49:34.152Z,2.50
2023-02-18T09:52:07.422Z,2.83
2023-02-18T09:54:34.633Z,2.17
2023-02-18T09:57:01.760Z,2.58
2023-02-18T10:11:42.026Z,3.40
2023-02-18T10:14:13.673Z,2.15
2023-02-18T10:16:41.086Z,1.88
2023-02-18T10:21:39.044Z,1.67
2023-02-18T10:27:09.293Z,1.70
2023-02-18T10:29:36.918Z,2.40
2023-02-18T10:34:42.786Z,2.05
2023-02-18T10:37:32.737Z,1.58
2023-02-18T10:40:02.569Z,1.60
2023-02-18T10:45:13.536Z,1.40
2023-02-18T10:47:43.410Z,1.10
2023-02-18T10:50:10.397Z,1.00
2023-02-18T10:52:44.884Z,1.10
2023-02-18T10:55:14.042Z,1.88
2023-02-18T11:02:43.799Z,0.98
2023-02-18T11:07:47.535Z,1.13
2023-02-18T11:10:19.587Z,1.30
2023-02-18T11:12:48.022Z,2.38
2023-02-18T11:15:15.112Z,1.23
2023-02-18T11:36:04.866Z,1.15
2023-02-18T11:46:14.253Z,1.40
2023-02-18T11:48:41.739Z,1.10
2023-02-18T11:51:16.741Z,1.20
2023-02-18T11:54:03.356Z,1.15
2023-02-18T11:56:34.195Z,1.20
2023-02-18T11:59:01.908Z,1.38
2023-02-18T12:01:34.793Z,1.23
2023-02-18T12:04:08.425Z,1.05
2023-02-18T12:06:37.560Z,0.90
2023-02-18T12:09:08.505Z,1.05
2023-02-18T12:14:09.738Z,1.10
2023-02-18T12:16:36.786Z,1.13
2023-02-18T12:19:18.747Z,1.25
2023-02-18T12:22:05.766Z,1.23
2023-02-18T12:28:03.168Z,1.10
2023-02-18T12:30:49.146Z,1.20
2023-02-18T12:33:29.094Z,1.17
2023-02-18T12:40:56.503Z,0.85
2023-02-18T12:46:03.062Z,0.90
2023-02-18T12:48:30.546Z,1.10
2023-02-18T12:54:11.626Z,1.20
2023-02-18T13:53:38.609Z,1.30
2023-02-18T13:56:08.993Z,1.60
2023-02-18T13:58:35.879Z,0.88
2023-02-18T14:11:15.499Z,0.90
2023-02-18T14:13:56.270Z,1.00
2023-02-18T14:18:56.639Z,1.25
2023-02-18T14:24:04.109Z,1.00
2023-02-18T14:26:51.137Z,1.02
2023-02-18T14:29:29.111Z,0.75
2023-02-18T14:32:05.258Z,0.90
2023-02-18T14:34:46.233Z,1.00
2023-02-18T14:37:25.594Z,0.88
2023-02-18T14:40:33.426Z,1.10
2023-02-18T14:48:15.088Z,0.63
2023-02-18T14:50:44.141Z,1.02
2023-02-18T14:53:29.496Z,1.30
2023-02-18T14:56:04.697Z,1.00
2023-02-18T15:11:52.809Z,0.85
2023-02-18T15:19:27.196Z,1.05
2023-02-18T15:21:56.049Z,0.80
2023-02-18T15:24:37.006Z,1.40
2023-02-18T15:30:03.756Z,2.03
2023-02-18T15:32:32.702Z,0.90
2023-02-18T16:00:28.434Z,1.63
2023-02-18T16:20:56.439Z,1.40
2023-02-18T16:33:19.625Z,1.73
2023-02-18T16:35:50.906Z,2.20
2023-02-18T16:55:33.302Z,2.63
2023-02-18T16:58:00.668Z,1.80
2023-02-18T17:00:36.848Z,2.10
2023-02-18T17:10:30.863Z,2.22
2023-02-18T17:12:59.676Z,3.22
2023-02-18T17:15:33.938Z,2.83
2023-02-18T17:18:01.918Z,3.85
2023-02-18T17:30:21.433Z,3.78
2023-02-18T17:32:48.998Z,3.25
2023-02-18T17:35:20.140Z,2.88
2023-02-18T17:37:47.327Z,2.67
2023-02-18T17:40:21.876Z,2.50
2023-02-18T17:42:49.021Z,2.83
2023-02-18T17:45:22.610Z,2.80
2023-02-18T18:08:31.529Z,2.40
2023-02-18T18:11:00.954Z,2.22
2023-02-18T18:13:29.414Z,2.60
2023-02-18T18:43:32.282Z,5.00
2023-02-18T18:50:52.014Z,4.13
2023-02-18T18:53:20.701Z,3.60
2023-02-18T18:55:48.580Z,3.63
2023-02-18T18:58:20.792Z,2.17
2023-02-18T19:00:50.788Z,2.85
2023-02-18T19:03:17.988Z,1.67
2023-02-18T19:08:12.736Z,1.40
2023-02-18T19:10:41.029Z,1.77
2023-02-18T19:13:15.088Z,1.50
2023-02-18T19:15:42.289Z,1.73
2023-02-18T19:18:12.817Z,1.92
2023-02-18T19:20:42.094Z,1.50
2023-02-18T19:23:10.342Z,1.30
2023-02-18T19:25:37.914Z,1.20
2023-02-18T19:30:32.501Z,1.27
2023-02-18T19:33:00.486Z,1.83
2023-02-18T19:35:28.132Z,2.03
2023-02-18T19:37:55.273Z,1.60
2023-02-18T19:40:23.902Z,1.48
2023-02-18T19:42:51.150Z,1.75
2023-02-18T19:47:44.086Z,2.15
2023-02-18T19:50:13.522Z,1.90
2023-02-18T19:52:40.755Z,2.25
2023-02-18T19:55:08.253Z,1.50
2023-02-18T19:57:38.767Z,1.70
2023-02-18T20:12:57.248Z,2.97
2023-02-18T20:15:24.451Z,5.22
2023-02-18T20:17:51.620Z,1.92
2023-02-18T20:20:19.611Z,1.98
2023-02-18T20:22:46.569Z,1.80
2023-02-18T20:25:13.845Z,1.67
2023-02-18T20:35:00.671Z,1.58
2023-02-18T20:37:27.977Z,1.77
2023-02-18T20:39:55.020Z,1.90
2023-02-18T20:42:22.008Z,2.10
2023-02-18T20:44:49.842Z,1.60
2023-02-18T20:47:16.748Z,1.95
2023-02-18T20:49:43.631Z,1.80
2023-02-18T21:06:50.365Z,1.67
2023-02-18T21:11:47.273Z,1.40
2023-02-18T21:14:20.734Z,1.55
2023-02-18T21:21:41.149Z,1.63
2023-02-18T21:31:29.846Z,2.35
2023-02-18T21:33:57.174Z,1.08
2023-02-18T21:36:24.257Z,1.65
2023-02-18T21:43:44.660Z,1.20
2023-02-18T21:46:17.909Z,1.65
2023-02-18T21:49:03.758Z,1.65
2023-02-18T21:51:49.845Z,1.30
2023-02-18T21:54:21.648Z,1.30
2023-02-18T21:56:48.772Z,0.93
2023-02-18T21:59:16.169Z,1.10
2023-02-18T22:01:43.323Z,0.90
2023-02-18T22:04:10.535Z,0.90
2023-02-18T22:09:04.341Z,0.82
2023-02-18T22:11:31.572Z,0.90
2023-02-18T22:16:26.106Z,1.10
2023-02-18T22:18:53.519Z,1.30
2023-02-18T22:21:21.203Z,1.00
2023-02-18T22:23:48.267Z,1.10
2023-02-18T22:26:15.471Z,1.30
2023-02-18T22:28:44.639Z,1.40
2023-02-18T22:36:05.217Z,1.80
2023-02-18T22:43:29.332Z,1.23
2023-02-18T22:45:56.550Z,1.10
2023-02-18T22:48:24.802Z,1.50
2023-02-18T22:50:51.700Z,1.83
2023-02-18T22:58:12.769Z,1.30
2023-02-18T23:00:40.211Z,1.10
2023-02-18T23:08:00.239Z,1.50
2023-02-18T23:27:27.869Z,2.10
2023-02-18T23:29:56.652Z,1.45
2023-02-18T23:32:25.262Z,1.20
2023-02-18T23:34:52.450Z,1.20
2023-02-18T23:37:40.120Z,1.20
2023-02-18T23:47:28.379Z,1.35
2023-02-18T23:49:56.798Z,1.58
2023-02-18T23:52:24.061Z,0.98
2023-02-18T23:54:51.079Z,1.10
